sensor_id;sensor_type;location;lat;lon;timestamp;temperature;humidity
16513;DHT22;8369;48.030;11.598;2022-07-23T00:00:43;24.50;92.40
16513;DHT22;8369;48.030;11.598;2022-07-23T00:03:11;24.50;95.10
16513;DHT22;8369;48.030;11.598;2022-07-23T00:05:37;24.40;97.00
16513;DHT22;8369;48.030;11.598;2022-07-23T00:08:05;24.40;97.40
16513;DHT22;8369;48.030;11.598;2022-07-23T00:10:31;24.30;97.00
16513;DHT22;8369;48.030;11.598;2022-07-23T00:12:57;24.30;97.50
16513;DHT22;8369;48.030;11.598;2022-07-23T00:15:23;24.30;97.90
16513;DHT22;8369;48.030;11.598;2022-07-23T00:17:48;24.20;97.80
16513;DHT22;8369;48.030;11.598;2022-07-23T00:20:14;24.10;97.20
16513;DHT22;8369;48.030;11.598;2022-07-23T00:22:51;24.10;97.70
16513;DHT22;8369;48.030;11.598;2022-07-23T00:25:18;24.10;97.70
16513;DHT22;8369;48.030;11.598;2022-07-23T00:27:44;24.00;96.50
16513;DHT22;8369;48.030;11.598;2022-07-23T00:30:11;24.00;97.00
16513;DHT22;8369;48.030;11.598;2022-07-23T00:32:52;24.00;98.20
16513;DHT22;8369;48.030;11.598;2022-07-23T00:35:23;23.90;97.50
16513;DHT22;8369;48.030;11.598;2022-07-23T00:37:49;23.90;98.00
16513;DHT22;8369;48.030;11.598;2022-07-23T00:40:16;23.90;97.70
16513;DHT22;8369;48.030;11.598;2022-07-23T00:42:42;23.90;97.50
16513;DHT22;8369;48.030;11.598;2022-07-23T00:45:09;23.80;96.10
16513;DHT22;8369;48.030;11.598;2022-07-23T00:47:35;23.80;95.80
16513;DHT22;8369;48.030;11.598;2022-07-23T00:50:03;23.80;95.10
16513;DHT22;8369;48.030;11.598;2022-07-23T00:52:29;23.80;95.00
16513;DHT22;8369;48.030;11.598;2022-07-23T00:54:55;23.80;94.70
16513;DHT22;8369;48.030;11.598;2022-07-23T00:57:22;23.80;94.60
16513;DHT22;8369;48.030;11.598;2022-07-23T00:59:48;23.80;94.20
16513;DHT22;8369;48.030;11.598;2022-07-23T01:02:14;23.90;93.40
16513;DHT22;8369;48.030;11.598;2022-07-23T01:04:40;23.90;92.90
16513;DHT22;8369;48.030;11.598;2022-07-23T01:07:07;23.90;92.50
16513;DHT22;8369;48.030;11.598;2022-07-23T01:09:33;23.90;92.10
16513;DHT22;8369;48.030;11.598;2022-07-23T01:11:59;23.90;92.00
16513;DHT22;8369;48.030;11.598;2022-07-23T01:14:26;24.00;91.90
16513;DHT22;8369;48.030;11.598;2022-07-23T01:16:59;24.00;92.00
16513;DHT22;8369;48.030;11.598;2022-07-23T01:19:25;24.00;92.00
16513;DHT22;8369;48.030;11.598;2022-07-23T01:21:51;23.90;92.30
16513;DHT22;8369;48.030;11.598;2022-07-23T01:24:19;23.80;92.70
16513;DHT22;8369;48.030;11.598;2022-07-23T01:26:49;23.80;92.90
16513;DHT22;8369;48.030;11.598;2022-07-23T01:29:17;23.80;92.50
16513;DHT22;8369;48.030;11.598;2022-07-23T01:31:44;23.80;92.40
16513;DHT22;8369;48.030;11.598;2022-07-23T01:34:09;23.70;89.50
16513;DHT22;8369;48.030;11.598;2022-07-23T01:36:36;23.60;88.80
16513;DHT22;8369;48.030;11.598;2022-07-23T01:39:06;23.50;85.00
16513;DHT22;8369;48.030;11.598;2022-07-23T01:41:33;23.50;83.40
16513;DHT22;8369;48.030;11.598;2022-07-23T01:43:59;23.40;79.70
16513;DHT22;8369;48.030;11.598;2022-07-23T01:46:24;23.30;79.40
16513;DHT22;8369;48.030;11.598;2022-07-23T01:48:50;23.20;81.60
16513;DHT22;8369;48.030;11.598;2022-07-23T01:51:16;23.10;83.30
16513;DHT22;8369;48.030;11.598;2022-07-23T01:53:42;23.10;83.90
16513;DHT22;8369;48.030;11.598;2022-07-23T01:56:08;23.10;85.00
16513;DHT22;8369;48.030;11.598;2022-07-23T01:58:33;23.00;86.00
16513;DHT22;8369;48.030;11.598;2022-07-23T02:00:59;22.90;86.50
16513;DHT22;8369;48.030;11.598;2022-07-23T02:03:28;22.90;86.80
16513;DHT22;8369;48.030;11.598;2022-07-23T02:05:53;22.80;87.10
16513;DHT22;8369;48.030;11.598;2022-07-23T02:08:19;22.80;87.40
16513;DHT22;8369;48.030;11.598;2022-07-23T02:10:45;22.90;87.40
16513;DHT22;8369;48.030;11.598;2022-07-23T02:13:11;22.80;87.90
16513;DHT22;8369;48.030;11.598;2022-07-23T02:15:37;22.80;88.50
16513;DHT22;8369;48.030;11.598;2022-07-23T02:18:03;22.80;88.30
16513;DHT22;8369;48.030;11.598;2022-07-23T02:20:31;22.80;88.60
16513;DHT22;8369;48.030;11.598;2022-07-23T02:22:57;22.80;89.10
16513;DHT22;8369;48.030;11.598;2022-07-23T02:25:23;22.70;90.00
16513;DHT22;8369;48.030;11.598;2022-07-23T02:27:49;22.70;90.30
16513;DHT22;8369;48.030;11.598;2022-07-23T02:30:15;22.60;92.00
16513;DHT22;8369;48.030;11.598;2022-07-23T02:32:41;22.50;93.30
16513;DHT22;8369;48.030;11.598;2022-07-23T02:35:07;22.50;94.40
16513;DHT22;8369;48.030;11.598;2022-07-23T02:37:33;22.50;93.80
16513;DHT22;8369;48.030;11.598;2022-07-23T02:39:59;22.50;94.50
16513;DHT22;8369;48.030;11.598;2022-07-23T02:42:28;22.40;95.40
16513;DHT22;8369;48.030;11.598;2022-07-23T02:44:54;22.50;94.60
16513;DHT22;8369;48.030;11.598;2022-07-23T02:47:22;22.40;94.20
16513;DHT22;8369;48.030;11.598;2022-07-23T02:49:48;22.40;94.10
16513;DHT22;8369;48.030;11.598;2022-07-23T02:52:14;22.40;93.60
16513;DHT22;8369;48.030;11.598;2022-07-23T02:54:40;22.40;93.40
16513;DHT22;8369;48.030;11.598;2022-07-23T02:57:06;22.40;92.80
16513;DHT22;8369;48.030;11.598;2022-07-23T02:59:31;22.40;92.40
16513;DHT22;8369;48.030;11.598;2022-07-23T03:01:57;22.40;92.00
16513;DHT22;8369;48.030;11.598;2022-07-23T03:04:23;22.40;91.50
16513;DHT22;8369;48.030;11.598;2022-07-23T03:06:48;22.40;91.30
16513;DHT22;8369;48.030;11.598;2022-07-23T03:09:14;22.50;91.50
16513;DHT22;8369;48.030;11.598;2022-07-23T03:11:43;22.50;91.40
16513;DHT22;8369;48.030;11.598;2022-07-23T03:14:09;22.50;91.20
16513;DHT22;8369;48.030;11.598;2022-07-23T03:16:38;22.60;90.80
16513;DHT22;8369;48.030;11.598;2022-07-23T03:19:04;22.60;90.40
16513;DHT22;8369;48.030;11.598;2022-07-23T03:21:30;22.60;90.40
16513;DHT22;8369;48.030;11.598;2022-07-23T03:23:56;22.60;89.80
16513;DHT22;8369;48.030;11.598;2022-07-23T03:26:22;22.60;90.70
16513;DHT22;8369;48.030;11.598;2022-07-23T03:28:51;22.70;91.10
16513;DHT22;8369;48.030;11.598;2022-07-23T03:31:18;22.70;91.30
16513;DHT22;8369;48.030;11.598;2022-07-23T03:33:44;22.70;92.30
16513;DHT22;8369;48.030;11.598;2022-07-23T03:36:12;22.70;92.90
16513;DHT22;8369;48.030;11.598;2022-07-23T03:38:42;22.70;92.80
16513;DHT22;8369;48.030;11.598;2022-07-23T03:41:07;22.60;91.60
16513;DHT22;8369;48.030;11.598;2022-07-23T03:43:36;22.60;91.70
16513;DHT22;8369;48.030;11.598;2022-07-23T03:46:02;22.60;91.00
16513;DHT22;8369;48.030;11.598;2022-07-23T03:48:27;22.50;92.50
16513;DHT22;8369;48.030;11.598;2022-07-23T03:50:54;22.50;93.40
16513;DHT22;8369;48.030;11.598;2022-07-23T03:53:20;22.40;94.80
16513;DHT22;8369;48.030;11.598;2022-07-23T03:55:46;22.30;95.40
16513;DHT22;8369;48.030;11.598;2022-07-23T03:58:12;22.20;96.00
16513;DHT22;8369;48.030;11.598;2022-07-23T04:00:40;22.20;96.00
16513;DHT22;8369;48.030;11.598;2022-07-23T04:03:06;22.10;95.50
16513;DHT22;8369;48.030;11.598;2022-07-23T04:05:32;22.10;95.70
16513;DHT22;8369;48.030;11.598;2022-07-23T04:08:01;22.00;96.90
16513;DHT22;8369;48.030;11.598;2022-07-23T04:10:27;22.00;97.40
16513;DHT22;8369;48.030;11.598;2022-07-23T04:12:53;22.00;96.60
16513;DHT22;8369;48.030;11.598;2022-07-23T04:15:19;21.90;96.60
16513;DHT22;8369;48.030;11.598;2022-07-23T04:17:45;21.90;98.20
16513;DHT22;8369;48.030;11.598;2022-07-23T04:20:13;21.90;98.50
16513;DHT22;8369;48.030;11.598;2022-07-23T04:22:39;21.90;98.20
16513;DHT22;8369;48.030;11.598;2022-07-23T04:25:08;21.80;97.20
16513;DHT22;8369;48.030;11.598;2022-07-23T04:27:34;21.80;97.30
16513;DHT22;8369;48.030;11.598;2022-07-23T04:30:00;21.80;97.60
16513;DHT22;8369;48.030;11.598;2022-07-23T04:32:26;21.80;98.20
16513;DHT22;8369;48.030;11.598;2022-07-23T04:34:52;21.90;98.40
16513;DHT22;8369;48.030;11.598;2022-07-23T04:37:18;21.80;98.70
16513;DHT22;8369;48.030;11.598;2022-07-23T04:39:44;21.80;99.00
16513;DHT22;8369;48.030;11.598;2022-07-23T04:42:12;21.80;99.10
16513;DHT22;8369;48.030;11.598;2022-07-23T04:44:40;21.80;99.10
16513;DHT22;8369;48.030;11.598;2022-07-23T04:47:06;21.80;99.10
16513;DHT22;8369;48.030;11.598;2022-07-23T04:49:32;21.80;99.10
16513;DHT22;8369;48.030;11.598;2022-07-23T04:52:01;21.80;98.30
16513;DHT22;8369;48.030;11.598;2022-07-23T04:54:27;21.80;99.40
16513;DHT22;8369;48.030;11.598;2022-07-23T04:56:53;21.80;99.80
16513;DHT22;8369;48.030;11.598;2022-07-23T04:59:20;21.80;99.50
16513;DHT22;8369;48.030;11.598;2022-07-23T05:01:48;21.80;99.70
16513;DHT22;8369;48.030;11.598;2022-07-23T05:04:14;21.90;99.90
16513;DHT22;8369;48.030;11.598;2022-07-23T05:06:42;21.90;99.90
16513;DHT22;8369;48.030;11.598;2022-07-23T05:09:08;21.90;99.90
16513;DHT22;8369;48.030;11.598;2022-07-23T05:11:34;21.90;99.90
16513;DHT22;8369;48.030;11.598;2022-07-23T05:14:00;22.00;99.90
16513;DHT22;8369;48.030;11.598;2022-07-23T05:16:26;22.00;99.60
16513;DHT22;8369;48.030;11.598;2022-07-23T05:18:51;22.00;99.60
16513;DHT22;8369;48.030;11.598;2022-07-23T05:21:18;22.00;99.90
16513;DHT22;8369;48.030;11.598;2022-07-23T05:23:44;22.00;99.90
16513;DHT22;8369;48.030;11.598;2022-07-23T05:26:10;22.00;99.90
16513;DHT22;8369;48.030;11.598;2022-07-23T05:28:35;22.10;99.90
16513;DHT22;8369;48.030;11.598;2022-07-23T05:31:04;22.10;99.90
16513;DHT22;8369;48.030;11.598;2022-07-23T05:33:31;22.10;99.90
16513;DHT22;8369;48.030;11.598;2022-07-23T05:36:02;22.10;99.90
16513;DHT22;8369;48.030;11.598;2022-07-23T05:38:28;22.10;99.90
16513;DHT22;8369;48.030;11.598;2022-07-23T05:40:54;22.10;99.90
16513;DHT22;8369;48.030;11.598;2022-07-23T05:43:23;22.20;99.90
16513;DHT22;8369;48.030;11.598;2022-07-23T05:45:49;22.20;99.90
16513;DHT22;8369;48.030;11.598;2022-07-23T05:48:15;22.20;99.90
16513;DHT22;8369;48.030;11.598;2022-07-23T05:50:41;22.20;99.90
16513;DHT22;8369;48.030;11.598;2022-07-23T05:53:07;22.20;98.60
16513;DHT22;8369;48.030;11.598;2022-07-23T05:55:33;22.20;98.80
16513;DHT22;8369;48.030;11.598;2022-07-23T05:57:59;22.30;98.90
16513;DHT22;8369;48.030;11.598;2022-07-23T06:00:28;22.30;98.50
16513;DHT22;8369;48.030;11.598;2022-07-23T06:02:54;22.40;98.40
16513;DHT22;8369;48.030;11.598;2022-07-23T06:05:23;22.40;98.50
16513;DHT22;8369;48.030;11.598;2022-07-23T06:07:49;22.40;97.80
16513;DHT22;8369;48.030;11.598;2022-07-23T06:10:16;22.50;97.70
16513;DHT22;8369;48.030;11.598;2022-07-23T06:12:42;22.50;98.10
16513;DHT22;8369;48.030;11.598;2022-07-23T06:15:08;22.50;98.50
16513;DHT22;8369;48.030;11.598;2022-07-23T06:17:34;22.50;99.50
16513;DHT22;8369;48.030;11.598;2022-07-23T06:20:01;22.50;99.60
16513;DHT22;8369;48.030;11.598;2022-07-23T06:22:27;22.50;99.80
16513;DHT22;8369;48.030;11.598;2022-07-23T06:24:53;22.50;99.90
16513;DHT22;8369;48.030;11.598;2022-07-23T06:27:19;22.40;99.90
16513;DHT22;8369;48.030;11.598;2022-07-23T06:29:45;22.40;99.90
16513;DHT22;8369;48.030;11.598;2022-07-23T06:32:11;22.30;99.90
16513;DHT22;8369;48.030;11.598;2022-07-23T06:34:37;22.30;99.90
16513;DHT22;8369;48.030;11.598;2022-07-23T06:37:03;22.30;99.90
16513;DHT22;8369;48.030;11.598;2022-07-23T06:39:29;22.30;99.90
16513;DHT22;8369;48.030;11.598;2022-07-23T06:41:55;22.30;99.90
16513;DHT22;8369;48.030;11.598;2022-07-23T06:44:27;22.30;99.90
16513;DHT22;8369;48.030;11.598;2022-07-23T06:46:55;22.30;99.90
16513;DHT22;8369;48.030;11.598;2022-07-23T06:49:21;22.30;99.90
16513;DHT22;8369;48.030;11.598;2022-07-23T06:51:48;22.30;99.90
16513;DHT22;8369;48.030;11.598;2022-07-23T06:54:17;22.30;99.90
16513;DHT22;8369;48.030;11.598;2022-07-23T06:56:43;22.30;99.90
16513;DHT22;8369;48.030;11.598;2022-07-23T06:59:09;22.40;99.90
16513;DHT22;8369;48.030;11.598;2022-07-23T07:01:35;22.40;99.90
16513;DHT22;8369;48.030;11.598;2022-07-23T07:04:04;22.40;99.90
16513;DHT22;8369;48.030;11.598;2022-07-23T07:06:29;22.40;99.90
16513;DHT22;8369;48.030;11.598;2022-07-23T07:08:55;22.50;99.80
16513;DHT22;8369;48.030;11.598;2022-07-23T07:11:22;22.60;99.40
16513;DHT22;8369;48.030;11.598;2022-07-23T07:13:49;22.60;99.00
16513;DHT22;8369;48.030;11.598;2022-07-23T07:16:15;22.80;98.60
16513;DHT22;8369;48.030;11.598;2022-07-23T07:18:41;22.80;98.60
16513;DHT22;8369;48.030;11.598;2022-07-23T07:21:10;22.80;98.40
16513;DHT22;8369;48.030;11.598;2022-07-23T07:23:36;22.90;97.80
16513;DHT22;8369;48.030;11.598;2022-07-23T07:26:02;23.00;97.20
16513;DHT22;8369;48.030;11.598;2022-07-23T07:28:28;23.10;97.30
16513;DHT22;8369;48.030;11.598;2022-07-23T07:30:54;23.10;97.20
16513;DHT22;8369;48.030;11.598;2022-07-23T07:33:25;23.20;96.80
16513;DHT22;8369;48.030;11.598;2022-07-23T07:35:53;23.30;96.70
16513;DHT22;8369;48.030;11.598;2022-07-23T07:38:22;23.40;96.00
16513;DHT22;8369;48.030;11.598;2022-07-23T07:40:48;23.40;95.50
16513;DHT22;8369;48.030;11.598;2022-07-23T07:43:14;23.40;95.70
16513;DHT22;8369;48.030;11.598;2022-07-23T07:45:42;23.30;95.80
16513;DHT22;8369;48.030;11.598;2022-07-23T07:48:08;23.40;95.60
16513;DHT22;8369;48.030;11.598;2022-07-23T07:50:34;23.30;95.90
16513;DHT22;8369;48.030;11.598;2022-07-23T07:53:02;23.30;96.80
16513;DHT22;8369;48.030;11.598;2022-07-23T07:55:28;23.30;96.80
16513;DHT22;8369;48.030;11.598;2022-07-23T07:57:54;23.30;96.90
16513;DHT22;8369;48.030;11.598;2022-07-23T08:00:27;23.20;96.80
16513;DHT22;8369;48.030;11.598;2022-07-23T08:02:54;23.20;96.60
16513;DHT22;8369;48.030;11.598;2022-07-23T08:05:26;23.10;97.00
16513;DHT22;8369;48.030;11.598;2022-07-23T08:08:06;23.10;97.20
16513;DHT22;8369;48.030;11.598;2022-07-23T08:10:35;23.10;97.20
16513;DHT22;8369;48.030;11.598;2022-07-23T08:13:00;23.00;97.20
16513;DHT22;8369;48.030;11.598;2022-07-23T08:15:28;23.00;97.20
16513;DHT22;8369;48.030;11.598;2022-07-23T08:17:54;23.10;97.10
16513;DHT22;8369;48.030;11.598;2022-07-23T08:20:22;23.10;96.90
16513;DHT22;8369;48.030;11.598;2022-07-23T08:22:53;23.20;96.90
16513;DHT22;8369;48.030;11.598;2022-07-23T08:25:25;23.20;96.60
16513;DHT22;8369;48.030;11.598;2022-07-23T08:27:50;23.20;96.40
16513;DHT22;8369;48.030;11.598;2022-07-23T08:30:18;23.30;96.10
16513;DHT22;8369;48.030;11.598;2022-07-23T08:32:49;23.30;96.20
16513;DHT22;8369;48.030;11.598;2022-07-23T08:35:16;23.30;96.20
16513;DHT22;8369;48.030;11.598;2022-07-23T08:37:41;23.30;96.00
16513;DHT22;8369;48.030;11.598;2022-07-23T08:40:08;23.30;96.30
16513;DHT22;8369;48.030;11.598;2022-07-23T08:42:34;23.30;96.30
16513;DHT22;8369;48.030;11.598;2022-07-23T08:45:02;23.40;96.40
16513;DHT22;8369;48.030;11.598;2022-07-23T08:47:29;23.40;96.60
16513;DHT22;8369;48.030;11.598;2022-07-23T08:49:58;23.50;96.20
16513;DHT22;8369;48.030;11.598;2022-07-23T08:52:27;23.60;96.00
16513;DHT22;8369;48.030;11.598;2022-07-23T08:55:00;23.70;95.80
16513;DHT22;8369;48.030;11.598;2022-07-23T08:57:26;23.80;95.20
16513;DHT22;8369;48.030;11.598;2022-07-23T08:59:52;23.90;94.90
16513;DHT22;8369;48.030;11.598;2022-07-23T09:02:18;23.90;94.60
16513;DHT22;8369;48.030;11.598;2022-07-23T09:04:44;24.00;94.00
16513;DHT22;8369;48.030;11.598;2022-07-23T09:07:13;24.00;93.40
16513;DHT22;8369;48.030;11.598;2022-07-23T09:09:39;24.00;93.20
16513;DHT22;8369;48.030;11.598;2022-07-23T09:12:08;24.00;92.70
16513;DHT22;8369;48.030;11.598;2022-07-23T09:14:42;24.00;92.70
16513;DHT22;8369;48.030;11.598;2022-07-23T09:17:14;23.90;93.20
16513;DHT22;8369;48.030;11.598;2022-07-23T09:19:41;24.00;93.10
16513;DHT22;8369;48.030;11.598;2022-07-23T09:22:25;24.00;93.10
16513;DHT22;8369;48.030;11.598;2022-07-23T09:25:14;24.00;93.30
16513;DHT22;8369;48.030;11.598;2022-07-23T09:27:49;24.00;92.40
16513;DHT22;8369;48.030;11.598;2022-07-23T09:30:16;24.00;92.80
16513;DHT22;8369;48.030;11.598;2022-07-23T09:32:42;24.00;93.40
16513;DHT22;8369;48.030;11.598;2022-07-23T09:35:09;24.00;93.30
16513;DHT22;8369;48.030;11.598;2022-07-23T09:37:35;24.10;93.30
16513;DHT22;8369;48.030;11.598;2022-07-23T09:40:09;24.10;93.10
16513;DHT22;8369;48.030;11.598;2022-07-23T09:42:37;24.20;93.00
16513;DHT22;8369;48.030;11.598;2022-07-23T09:45:03;24.30;92.60
16513;DHT22;8369;48.030;11.598;2022-07-23T09:47:35;24.50;92.40
16513;DHT22;8369;48.030;11.598;2022-07-23T09:50:09;24.60;92.30
16513;DHT22;8369;48.030;11.598;2022-07-23T09:52:46;24.80;92.10
16513;DHT22;8369;48.030;11.598;2022-07-23T09:55:17;25.00;91.00
16513;DHT22;8369;48.030;11.598;2022-07-23T09:57:44;25.10;89.70
16513;DHT22;8369;48.030;11.598;2022-07-23T10:00:15;25.10;89.20
16513;DHT22;8369;48.030;11.598;2022-07-23T10:02:42;25.30;88.80
16513;DHT22;8369;48.030;11.598;2022-07-23T10:05:10;25.40;86.80
16513;DHT22;8369;48.030;11.598;2022-07-23T10:07:40;25.50;86.80
16513;DHT22;8369;48.030;11.598;2022-07-23T10:10:07;25.60;87.10
16513;DHT22;8369;48.030;11.598;2022-07-23T10:12:34;25.80;85.00
16513;DHT22;8369;48.030;11.598;2022-07-23T10:15:04;25.90;85.00
16513;DHT22;8369;48.030;11.598;2022-07-23T10:17:32;25.90;84.80
16513;DHT22;8369;48.030;11.598;2022-07-23T10:19:58;26.00;82.10
16513;DHT22;8369;48.030;11.598;2022-07-23T10:22:31;26.00;80.60
16513;DHT22;8369;48.030;11.598;2022-07-23T10:41:48;26.20;79.60
16513;DHT22;8369;48.030;11.598;2022-07-23T10:44:17;26.30;78.40
16513;DHT22;8369;48.030;11.598;2022-07-23T10:46:58;26.20;79.00
16513;DHT22;8369;48.030;11.598;2022-07-23T10:49:43;26.20;79.90
16513;DHT22;8369;48.030;11.598;2022-07-23T10:52:28;26.10;80.30
16513;DHT22;8369;48.030;11.598;2022-07-23T10:54:56;26.10;81.40
16513;DHT22;8369;48.030;11.598;2022-07-23T10:57:27;26.10;81.80
16513;DHT22;8369;48.030;11.598;2022-07-23T11:02:42;26.00;81.10
16513;DHT22;8369;48.030;11.598;2022-07-23T11:05:10;26.10;81.50
16513;DHT22;8369;48.030;11.598;2022-07-23T11:10:45;26.20;79.90
16513;DHT22;8369;48.030;11.598;2022-07-23T11:24:00;26.00;80.00
16513;DHT22;8369;48.030;11.598;2022-07-23T11:26:42;26.00;80.30
16513;DHT22;8369;48.030;11.598;2022-07-23T11:31:57;25.80;79.10
16513;DHT22;8369;48.030;11.598;2022-07-23T11:34:33;25.80;80.00
16513;DHT22;8369;48.030;11.598;2022-07-23T11:37:03;25.70;80.00
16513;DHT22;8369;48.030;11.598;2022-07-23T11:39:31;25.70;80.60
16513;DHT22;8369;48.030;11.598;2022-07-23T11:41:58;25.70;81.10
16513;DHT22;8369;48.030;11.598;2022-07-23T11:44:26;25.60;81.50
16513;DHT22;8369;48.030;11.598;2022-07-23T11:46:59;25.60;79.90
16513;DHT22;8369;48.030;11.598;2022-07-23T11:49:26;25.60;80.80
16513;DHT22;8369;48.030;11.598;2022-07-23T11:54:30;25.50;81.60
16513;DHT22;8369;48.030;11.598;2022-07-23T11:56:57;25.50;81.80
16513;DHT22;8369;48.030;11.598;2022-07-23T11:59:26;25.50;81.40
16513;DHT22;8369;48.030;11.598;2022-07-23T12:02:03;25.50;81.10
16513;DHT22;8369;48.030;11.598;2022-07-23T12:04:46;25.40;80.50
16513;DHT22;8369;48.030;11.598;2022-07-23T12:07:35;25.40;81.00
16513;DHT22;8369;48.030;11.598;2022-07-23T12:12:51;25.30;81.30
16513;DHT22;8369;48.030;11.598;2022-07-23T12:15:27;25.30;81.60
16513;DHT22;8369;48.030;11.598;2022-07-23T12:17:59;25.30;82.10
16513;DHT22;8369;48.030;11.598;2022-07-23T12:20:34;25.30;80.80
16513;DHT22;8369;48.030;11.598;2022-07-23T12:23:04;25.30;81.30
16513;DHT22;8369;48.030;11.598;2022-07-23T12:25:36;25.20;81.50
16513;DHT22;8369;48.030;11.598;2022-07-23T12:28:05;25.20;81.10
16513;DHT22;8369;48.030;11.598;2022-07-23T12:30:52;25.10;81.40
16513;DHT22;8369;48.030;11.598;2022-07-23T12:33:29;25.10;81.50
16513;DHT22;8369;48.030;11.598;2022-07-23T12:35:57;25.10;81.40
16513;DHT22;8369;48.030;11.598;2022-07-23T12:38:28;25.10;81.60
16513;DHT22;8369;48.030;11.598;2022-07-23T12:40:58;25.00;81.50
16513;DHT22;8369;48.030;11.598;2022-07-23T12:43:37;25.00;81.80
16513;DHT22;8369;48.030;11.598;2022-07-23T12:46:12;24.90;82.20
16513;DHT22;8369;48.030;11.598;2022-07-23T12:53:46;24.90;82.40
16513;DHT22;8369;48.030;11.598;2022-07-23T12:56:16;24.90;83.00
16513;DHT22;8369;48.030;11.598;2022-07-23T12:58:51;24.90;83.90
16513;DHT22;8369;48.030;11.598;2022-07-23T13:01:23;24.90;84.10
16513;DHT22;8369;48.030;11.598;2022-07-23T13:03:59;24.80;84.40
16513;DHT22;8369;48.030;11.598;2022-07-23T13:06:27;24.90;83.90
16513;DHT22;8369;48.030;11.598;2022-07-23T13:08:53;24.90;83.40
16513;DHT22;8369;48.030;11.598;2022-07-23T13:11:23;24.90;83.00
16513;DHT22;8369;48.030;11.598;2022-07-23T13:13:49;25.00;83.40
16513;DHT22;8369;48.030;11.598;2022-07-23T13:16:15;25.10;82.80
16513;DHT22;8369;48.030;11.598;2022-07-23T13:18:41;25.10;83.00
16513;DHT22;8369;48.030;11.598;2022-07-23T13:21:07;25.20;83.70
16513;DHT22;8369;48.030;11.598;2022-07-23T13:23:34;25.20;83.40
16513;DHT22;8369;48.030;11.598;2022-07-23T13:26:03;25.30;82.40
16513;DHT22;8369;48.030;11.598;2022-07-23T13:28:30;25.40;82.50
16513;DHT22;8369;48.030;11.598;2022-07-23T13:30:56;25.40;81.90
16513;DHT22;8369;48.030;11.598;2022-07-23T13:33:24;25.40;82.10
16513;DHT22;8369;48.030;11.598;2022-07-23T13:35:51;25.40;81.80
16513;DHT22;8369;48.030;11.598;2022-07-23T13:38:18;25.40;81.80
16513;DHT22;8369;48.030;11.598;2022-07-23T13:40:48;25.40;82.20
16513;DHT22;8369;48.030;11.598;2022-07-23T13:43:17;25.40;82.50
16513;DHT22;8369;48.030;11.598;2022-07-23T13:45:43;25.40;82.20
16513;DHT22;8369;48.030;11.598;2022-07-23T13:48:10;25.40;82.70
16513;DHT22;8369;48.030;11.598;2022-07-23T13:50:37;25.40;82.50
16513;DHT22;8369;48.030;11.598;2022-07-23T13:53:05;25.40;82.20
16513;DHT22;8369;48.030;11.598;2022-07-23T13:55:33;25.30;82.50
16513;DHT22;8369;48.030;11.598;2022-07-23T13:58:00;25.30;82.80
16513;DHT22;8369;48.030;11.598;2022-07-23T14:00:27;25.20;83.00
16513;DHT22;8369;48.030;11.598;2022-07-23T14:02:53;25.20;83.10
16513;DHT22;8369;48.030;11.598;2022-07-23T14:05:19;25.10;83.30
16513;DHT22;8369;48.030;11.598;2022-07-23T14:07:45;25.10;83.70
16513;DHT22;8369;48.030;11.598;2022-07-23T14:10:13;25.00;84.40
16513;DHT22;8369;48.030;11.598;2022-07-23T14:12:39;25.00;84.70
16513;DHT22;8369;48.030;11.598;2022-07-23T14:15:06;25.00;85.30
16513;DHT22;8369;48.030;11.598;2022-07-23T14:17:33;24.90;85.40
16513;DHT22;8369;48.030;11.598;2022-07-23T14:20:00;24.90;85.70
16513;DHT22;8369;48.030;11.598;2022-07-23T14:22:26;24.90;86.20
16513;DHT22;8369;48.030;11.598;2022-07-23T14:24:52;24.90;86.50
16513;DHT22;8369;48.030;11.598;2022-07-23T14:27:17;24.90;87.60
16513;DHT22;8369;48.030;11.598;2022-07-23T14:29:44;24.90;87.90
16513;DHT22;8369;48.030;11.598;2022-07-23T14:32:10;24.90;88.00
16513;DHT22;8369;48.030;11.598;2022-07-23T14:34:36;24.90;88.30
16513;DHT22;8369;48.030;11.598;2022-07-23T14:37:04;25.00;88.00
16513;DHT22;8369;48.030;11.598;2022-07-23T14:39:30;25.00;88.60
16513;DHT22;8369;48.030;11.598;2022-07-23T14:42:00;25.00;88.90
16513;DHT22;8369;48.030;11.598;2022-07-23T14:44:25;25.00;89.70
16513;DHT22;8369;48.030;11.598;2022-07-23T14:46:52;25.00;88.80
16513;DHT22;8369;48.030;11.598;2022-07-23T14:49:18;25.00;87.40
16513;DHT22;8369;48.030;11.598;2022-07-23T14:51:44;25.00;87.90
16513;DHT22;8369;48.030;11.598;2022-07-23T14:54:10;25.00;88.00
16513;DHT22;8369;48.030;11.598;2022-07-23T14:56:36;25.10;88.90
16513;DHT22;8369;48.030;11.598;2022-07-23T14:59:06;25.20;89.20
16513;DHT22;8369;48.030;11.598;2022-07-23T15:01:32;25.20;89.20
16513;DHT22;8369;48.030;11.598;2022-07-23T15:03:59;25.40;88.90
16513;DHT22;8369;48.030;11.598;2022-07-23T15:06:25;25.60;89.10
16513;DHT22;8369;48.030;11.598;2022-07-23T15:08:51;25.70;89.80
16513;DHT22;8369;48.030;11.598;2022-07-23T15:11:17;25.80;89.40
16513;DHT22;8369;48.030;11.598;2022-07-23T15:13:42;26.00;87.90
16513;DHT22;8369;48.030;11.598;2022-07-23T15:16:09;26.10;87.90
16513;DHT22;8369;48.030;11.598;2022-07-23T15:18:37;26.20;86.20
16513;DHT22;8369;48.030;11.598;2022-07-23T15:21:03;26.20;85.40
16513;DHT22;8369;48.030;11.598;2022-07-23T15:23:30;26.30;85.40
16513;DHT22;8369;48.030;11.598;2022-07-23T15:25:57;26.30;85.40
16513;DHT22;8369;48.030;11.598;2022-07-23T15:28:23;26.30;85.00
16513;DHT22;8369;48.030;11.598;2022-07-23T15:30:50;26.40;85.10
16513;DHT22;8369;48.030;11.598;2022-07-23T15:33:17;26.50;84.50
16513;DHT22;8369;48.030;11.598;2022-07-23T15:35:43;26.60;83.90
16513;DHT22;8369;48.030;11.598;2022-07-23T15:38:09;26.60;83.40
16513;DHT22;8369;48.030;11.598;2022-07-23T15:40:35;26.60;83.30
16513;DHT22;8369;48.030;11.598;2022-07-23T15:43:01;26.60;82.10
16513;DHT22;8369;48.030;11.598;2022-07-23T15:45:29;26.50;83.00
16513;DHT22;8369;48.030;11.598;2022-07-23T15:47:55;26.50;83.40
16513;DHT22;8369;48.030;11.598;2022-07-23T15:50:25;26.40;83.30
16513;DHT22;8369;48.030;11.598;2022-07-23T15:52:52;26.30;83.70
16513;DHT22;8369;48.030;11.598;2022-07-23T15:55:18;26.30;84.20
16513;DHT22;8369;48.030;11.598;2022-07-23T15:57:44;26.40;84.70
16513;DHT22;8369;48.030;11.598;2022-07-23T16:00:11;26.30;85.10
16513;DHT22;8369;48.030;11.598;2022-07-23T16:02:40;26.40;85.00
16513;DHT22;8369;48.030;11.598;2022-07-23T16:05:06;26.50;84.70
16513;DHT22;8369;48.030;11.598;2022-07-23T16:07:32;26.50;85.00
16513;DHT22;8369;48.030;11.598;2022-07-23T16:10:04;26.60;85.10
16513;DHT22;8369;48.030;11.598;2022-07-23T16:12:30;26.70;83.70
16513;DHT22;8369;48.030;11.598;2022-07-23T16:14:57;26.60;83.70
16513;DHT22;8369;48.030;11.598;2022-07-23T16:17:22;26.60;84.10
16513;DHT22;8369;48.030;11.598;2022-07-23T16:19:48;26.70;83.10